createdAt,value
2023-04-26T00:00:50.120Z,101942.28
2023-04-26T00:03:18.234Z,101955.72
2023-04-26T00:05:46.362Z,101942.34
2023-04-26T00:08:14.429Z,101945.91
2023-04-26T00:10:42.202Z,101943.25
2023-04-26T00:13:11.169Z,101941.50
2023-04-26T00:15:38.985Z,101946.91
2023-04-26T00:18:07.061Z,101954.94
2023-04-26T00:20:35.168Z,101945.13
2023-04-26T00:23:03.085Z,101947.84
2023-04-26T00:25:31.037Z,101951.47
2023-04-26T00:27:59.009Z,101953.28
2023-04-26T00:30:28.214Z,101952.44
2023-04-26T00:32:56.371Z,101956.00
2023-04-26T00:35:24.242Z,101947.97
2023-04-26T00:37:52.445Z,101948.06
2023-04-26T00:40:20.729Z,101942.72
2023-04-26T00:42:48.481Z,101949.88
2023-04-26T00:45:16.829Z,101949.00
2023-04-26T00:47:46.232Z,101951.69
2023-04-26T00:50:14.478Z,101941.03
2023-04-26T00:52:42.595Z,101946.41
2023-04-26T00:55:11.484Z,101941.94
2023-04-26T00:57:40.636Z,101941.97
2023-04-26T01:00:10.165Z,101944.66
2023-04-26T01:02:38.818Z,101942.00
2023-04-26T01:05:09.343Z,101944.69
2023-04-26T01:07:38.662Z,101935.81
2023-04-26T01:10:09.423Z,101939.38
2023-04-26T01:12:39.082Z,101939.41
2023-04-26T01:15:07.737Z,101940.31
2023-04-26T01:17:37.980Z,101940.34
2023-04-26T01:20:10.008Z,101944.81
2023-04-26T01:22:39.007Z,101941.31
2023-04-26T01:25:09.292Z,101943.06
2023-04-26T01:27:37.136Z,101943.97
2023-04-26T01:30:05.461Z,101937.75
2023-04-26T01:32:33.649Z,101943.13
2023-04-26T01:35:01.663Z,101943.16
2023-04-26T01:37:29.388Z,101939.66
2023-04-26T01:39:58.595Z,101945.00
2023-04-26T01:42:26.658Z,101948.56
2023-04-26T01:44:54.505Z,101932.53
2023-04-26T01:47:22.715Z,101931.66
2023-04-26T01:49:50.408Z,101934.34
2023-04-26T01:52:18.069Z,101926.34
2023-04-26T01:54:45.842Z,101928.13
2023-04-26T01:57:15.117Z,101929.03
2023-04-26T01:59:42.958Z,101927.28
2023-04-26T02:02:10.565Z,101925.53
2023-04-26T02:04:38.454Z,101927.28
2023-04-26T02:07:06.457Z,101931.78
2023-04-26T02:09:34.323Z,101930.91
2023-04-26T02:12:02.823Z,101932.72
2023-04-26T02:14:32.413Z,101930.94
2023-04-26T02:17:00.089Z,101930.09
2023-04-26T02:19:28.051Z,101929.22
2023-04-26T02:21:58.123Z,101927.44
2023-04-26T02:24:26.822Z,101931.03
2023-04-26T02:26:55.141Z,101924.81
2023-04-26T02:29:39.997Z,101923.91
2023-04-26T02:32:12.573Z,101927.53
2023-04-26T02:34:40.657Z,101924.84
2023-04-26T02:37:08.875Z,101922.22
2023-04-26T02:39:37.013Z,101944.50
2023-04-26T02:42:05.247Z,101935.56
2023-04-26T02:44:32.979Z,101930.25
2023-04-26T02:47:00.825Z,101933.81
2023-04-26T02:49:31.611Z,101943.63
2023-04-26T02:51:59.345Z,101934.72
2023-04-26T02:54:27.293Z,101924.94
2023-04-26T02:56:55.617Z,101928.53
2023-04-26T02:59:23.521Z,101929.47
2023-04-26T03:01:51.388Z,101923.22
2023-04-26T03:04:19.571Z,101923.22
2023-04-26T03:06:48.981Z,101927.69
2023-04-26T03:09:16.940Z,101929.47
2023-04-26T03:11:44.992Z,101918.81
2023-04-26T03:14:13.008Z,101916.13
2023-04-26T03:16:43.439Z,101916.13
2023-04-26T03:19:11.463Z,101915.28
2023-04-26T03:21:39.601Z,101913.50
2023-04-26T03:24:09.259Z,101916.19
2023-04-26T03:26:36.901Z,101913.50
2023-04-26T03:29:04.473Z,101917.13
2023-04-26T03:31:32.606Z,101917.13
2023-04-26T03:34:00.353Z,101910.88
2023-04-26T03:36:28.531Z,101918.03
2023-04-26T03:38:56.412Z,101908.22
2023-04-26T03:41:26.351Z,101911.81
2023-04-26T03:43:54.002Z,101912.72
2023-04-26T03:46:21.712Z,101910.94
2023-04-26T03:48:49.724Z,101910.94
2023-04-26T03:51:17.968Z,101908.28
2023-04-26T03:53:46.934Z,101906.50
2023-04-26T03:56:14.596Z,101911.84
2023-04-26T03:58:44.184Z,101916.31
2023-04-26T04:01:11.831Z,101913.69
2023-04-26T04:03:41.246Z,101906.56
2023-04-26T04:06:09.515Z,101930.63
2023-04-26T04:08:38.322Z,101928.84
2023-04-26T04:11:06.402Z,101929.72
2023-04-26T04:13:34.555Z,101926.22
2023-04-26T04:16:04.697Z,101916.44
2023-04-26T04:18:32.692Z,101921.75
2023-04-26T04:21:00.357Z,101920.00
2023-04-26T04:23:28.486Z,101919.09
2023-04-26T04:25:56.317Z,101919.09
2023-04-26T04:28:24.102Z,101914.69
2023-04-26T04:30:51.781Z,101913.78
2023-04-26T04:33:21.284Z,101916.47
2023-04-26T04:35:50.276Z,101912.06
2023-04-26T04:38:18.240Z,101912.06
2023-04-26T04:40:45.967Z,101905.84
2023-04-26T04:43:14.615Z,101901.41
2023-04-26T04:45:42.567Z,101914.75
2023-04-26T04:48:11.653Z,101909.44
2023-04-26T04:50:42.498Z,101909.44
2023-04-26T04:53:10.504Z,101910.34
2023-04-26T04:55:38.273Z,101918.41
2023-04-26T04:58:06.817Z,101908.56
2023-04-26T05:00:34.589Z,101913.91
2023-04-26T05:03:02.668Z,101913.06
2023-04-26T05:05:30.570Z,101915.75
2023-04-26T05:07:59.599Z,101917.53
2023-04-26T05:10:27.537Z,101915.75
2023-04-26T05:12:55.764Z,101918.47
2023-04-26T05:15:23.946Z,101930.91
2023-04-26T05:17:52.569Z,101919.31
2023-04-26T05:20:20.620Z,101925.59
2023-04-26T05:22:48.399Z,101931.81
2023-04-26T05:25:19.246Z,101928.28
2023-04-26T05:27:48.134Z,101929.19
2023-04-26T05:30:16.488Z,101927.38
2023-04-26T05:32:44.299Z,101929.19
2023-04-26T05:35:12.023Z,101925.59
2023-04-26T05:37:40.381Z,101931.78
2023-04-26T05:40:12.229Z,101926.44
2023-04-26T05:42:41.424Z,101929.06
2023-04-26T05:45:10.646Z,101933.44
2023-04-26T05:47:38.602Z,101939.63
2023-04-26T05:50:07.489Z,101934.19
2023-04-26T05:52:35.446Z,101926.09
2023-04-26T05:55:04.336Z,101936.72
2023-04-26T05:57:32.365Z,101933.97
2023-04-26T06:00:01.637Z,101933.09
2023-04-26T06:02:29.615Z,101937.56
2023-04-26T06:04:57.786Z,101933.09
2023-04-26T06:07:25.956Z,101937.53
2023-04-26T06:09:53.927Z,101942.75
2023-04-26T06:12:21.682Z,101948.97
2023-04-26T06:14:49.544Z,101943.59
2023-04-26T06:17:18.925Z,101943.53
2023-04-26T06:19:46.949Z,101946.16
2023-04-26T06:22:14.991Z,101952.34
2023-04-26T06:24:42.954Z,101953.25
2023-04-26T06:27:10.907Z,101947.84
2023-04-26T06:29:39.003Z,101949.63
2023-04-26T06:32:07.796Z,101951.44
2023-04-26T06:34:37.868Z,101954.09
2023-04-26T06:37:06.370Z,101960.31
2023-04-26T06:39:34.569Z,101957.66
2023-04-26T06:42:02.912Z,101963.91
2023-04-26T06:44:30.934Z,101967.47
2023-04-26T06:46:58.942Z,101961.22
2023-04-26T06:49:27.874Z,101964.81
2023-04-26T06:51:57.782Z,101964.81
2023-04-26T06:54:30.566Z,101960.34
2023-04-26T06:57:00.758Z,101963.94
2023-04-26T06:59:29.370Z,101965.69
2023-04-26T07:01:57.081Z,101963.03
2023-04-26T07:04:25.384Z,101963.03
2023-04-26T07:06:53.177Z,101962.16
2023-04-26T07:09:22.334Z,101965.69
2023-04-26T07:11:50.143Z,101961.28
2023-04-26T07:14:18.929Z,101971.09
2023-04-26T07:16:46.995Z,101970.22
2023-04-26T07:19:14.724Z,101979.13
2023-04-26T07:21:42.919Z,101972.91
2023-04-26T07:24:11.307Z,101972.03
2023-04-26T07:26:41.492Z,101977.38
2023-04-26T07:29:09.164Z,101977.38
2023-04-26T07:31:37.121Z,101980.03
2023-04-26T07:34:04.875Z,101981.84
2023-04-26T07:36:32.965Z,101982.75
2023-04-26T07:39:00.971Z,101986.28
2023-04-26T07:41:28.879Z,101983.66
2023-04-26T07:43:58.013Z,101989.88
2023-04-26T07:46:26.629Z,101988.09
2023-04-26T07:48:54.393Z,101989.91
2023-04-26T07:51:22.578Z,101989.03
2023-04-26T07:53:51.160Z,101989.94
2023-04-26T07:56:19.152Z,101998.81
2023-04-26T07:58:47.135Z,101997.97
2023-04-26T08:01:16.899Z,101993.50
2023-04-26T08:03:45.077Z,101989.97
2023-04-26T08:06:13.326Z,101999.88
2023-04-26T08:08:45.019Z,102001.59
2023-04-26T08:11:13.079Z,101998.00
2023-04-26T08:13:40.886Z,101999.75
2023-04-26T08:16:09.023Z,101996.19
2023-04-26T08:18:38.189Z,101997.97
2023-04-26T08:21:06.655Z,102001.44
2023-04-26T08:23:37.226Z,101992.34
2023-04-26T08:26:06.717Z,101992.94
2023-04-26T08:28:36.006Z,101995.44
2023-04-26T08:31:04.280Z,101994.31
2023-04-26T08:33:32.374Z,101995.94
2023-04-26T08:36:02.516Z,101993.00
2023-04-26T08:38:31.124Z,101991.03
2023-04-26T08:41:02.140Z,101997.94
2023-04-26T08:43:30.614Z,101988.81
2023-04-26T08:46:00.840Z,101992.22
2023-04-26T08:48:31.580Z,101992.03
2023-04-26T08:50:59.547Z,101992.72
2023-04-26T08:53:31.636Z,101996.09
2023-04-26T08:56:00.609Z,102001.28
2023-04-26T08:58:28.900Z,102000.13
2023-04-26T09:00:57.597Z,102007.13
2023-04-26T09:03:26.380Z,101999.72
2023-04-26T09:05:55.826Z,101991.47
2023-04-26T09:08:23.946Z,101998.47
2023-04-26T09:10:53.330Z,101998.44
2023-04-26T09:13:21.669Z,101995.59
2023-04-26T09:15:50.172Z,101995.44
2023-04-26T09:18:20.550Z,101998.06
2023-04-26T09:21:03.712Z,101990.75
2023-04-26T09:23:32.267Z,101990.75
2023-04-26T09:26:20.714Z,101987.16
2023-04-26T09:28:49.552Z,101996.13
2023-04-26T09:31:39.546Z,101996.06
2023-04-26T09:34:08.430Z,101996.06
2023-04-26T09:36:49.508Z,101995.16
2023-04-26T09:39:31.636Z,102003.19
2023-04-26T09:42:00.737Z,102012.91
2023-04-26T09:44:31.074Z,102010.41
2023-04-26T09:47:00.978Z,102010.31
2023-04-26T09:49:29.068Z,102014.78
2023-04-26T09:52:07.497Z,102008.41
2023-04-26T09:54:47.378Z,102013.78
2023-04-26T09:57:18.039Z,102013.78
2023-04-26T09:59:47.327Z,102010.16
2023-04-26T10:02:17.723Z,102015.53
2023-04-26T10:04:49.234Z,102006.91
2023-04-26T10:07:18.412Z,102003.09
2023-04-26T10:09:47.396Z,102007.38
2023-04-26T10:12:18.275Z,102001.88
2023-04-26T10:14:48.081Z,102001.88
2023-04-26T10:17:17.046Z,101999.13
2023-04-26T10:19:46.691Z,102001.75
2023-04-26T10:22:21.221Z,102000.84
2023-04-26T10:24:51.700Z,102005.25
2023-04-26T10:27:53.133Z,102004.13
2023-04-26T10:30:24.421Z,102011.09
2023-04-26T10:33:16.755Z,102002.84
2023-04-26T10:36:21.221Z,102005.47
2023-04-26T10:39:26.212Z,101998.34
2023-04-26T10:42:24.015Z,101997.47
2023-04-26T10:44:54.735Z,101998.34
2023-04-26T10:47:29.647Z,102009.06
2023-04-26T10:50:07.314Z,102003.66
2023-04-26T10:52:35.830Z,102000.91
2023-04-26T10:55:05.382Z,102008.91
2023-04-26T10:57:50.860Z,102005.25
2023-04-26T11:00:32.971Z,101999.81
2023-04-26T11:03:06.533Z,102002.44
2023-04-26T11:05:54.637Z,102001.50
2023-04-26T11:08:26.708Z,102000.69
2023-04-26T11:11:09.063Z,102002.25
2023-04-26T11:13:38.778Z,102001.97
2023-04-26T11:16:09.422Z,101992.81
2023-04-26T11:18:39.086Z,101997.13
2023-04-26T11:21:07.656Z,101998.84
2023-04-26T11:23:36.715Z,101993.44
2023-04-26T11:26:05.775Z,101993.38
2023-04-26T11:28:34.976Z,101990.84
2023-04-26T11:31:04.142Z,101987.84
2023-04-26T11:33:35.095Z,101983.63
2023-04-26T11:36:04.108Z,101986.53
2023-04-26T11:38:31.981Z,101991.94
2023-04-26T11:41:01.691Z,101992.91
2023-04-26T11:43:37.186Z,101989.38
2023-04-26T11:46:05.987Z,101986.03
2023-04-26T11:48:36.983Z,102002.25
2023-04-26T11:51:07.377Z,102001.28
2023-04-26T11:53:39.645Z,101989.38
2023-04-26T11:56:15.290Z,101995.38
2023-04-26T11:58:45.936Z,102001.44
2023-04-26T12:01:21.056Z,101998.53
2023-04-26T12:03:53.495Z,102003.75
2023-04-26T12:06:22.148Z,102006.34
2023-04-26T12:08:53.298Z,101993.78
2023-04-26T12:11:21.665Z,101999.06
2023-04-26T12:13:49.510Z,102003.47
2023-04-26T12:18:52.980Z,101999.75
2023-04-26T12:21:21.593Z,102006.84
2023-04-26T12:23:49.692Z,102002.28
2023-04-26T12:26:20.393Z,102004.97
2023-04-26T12:28:48.253Z,102014.72
2023-04-26T12:31:16.013Z,102016.44
2023-04-26T12:33:44.462Z,102012.84
2023-04-26T12:36:14.432Z,102017.28
2023-04-26T12:38:42.226Z,102019.06
2023-04-26T12:41:09.938Z,102023.50
2023-04-26T12:43:38.287Z,102023.47
2023-04-26T12:46:06.230Z,102023.47
2023-04-26T12:48:34.017Z,102021.63
2023-04-26T12:51:01.646Z,102026.88
2023-04-26T12:53:30.907Z,102017.84
2023-04-26T12:55:58.848Z,102022.78
2023-04-26T12:58:26.868Z,102026.28
2023-04-26T13:00:54.537Z,102022.53
2023-04-26T13:03:22.772Z,102024.00
2023-04-26T13:05:50.799Z,102026.09
2023-04-26T13:08:18.465Z,102020.94
2023-04-26T13:10:48.066Z,102030.88
2023-04-26T13:13:15.974Z,102033.63
2023-04-26T13:15:44.227Z,102029.22
2023-04-26T13:18:12.956Z,102032.38
2023-04-26T13:20:41.066Z,102029.16
2023-04-26T13:23:09.689Z,102034.91
2023-04-26T13:25:37.920Z,102029.22
2023-04-26T13:28:07.264Z,102024.41
2023-04-26T13:30:35.441Z,102023.28
2023-04-26T13:33:03.470Z,102026.63
2023-04-26T13:35:31.655Z,102022.81
2023-04-26T13:37:59.519Z,102031.56
2023-04-26T13:40:28.065Z,102027.28
2023-04-26T13:42:56.189Z,102034.38
2023-04-26T13:45:25.678Z,102032.34
2023-04-26T13:47:53.849Z,102036.66
2023-04-26T13:50:22.260Z,102025.66
2023-04-26T13:52:50.876Z,102031.69
2023-04-26T13:55:18.781Z,102032.38
2023-04-26T13:57:46.929Z,102029.56
2023-04-26T14:00:16.562Z,102028.34
2023-04-26T14:02:46.706Z,102037.06
2023-04-26T14:05:14.977Z,102029.69
2023-04-26T14:07:43.739Z,102029.44
2023-04-26T14:10:12.373Z,102031.94
2023-04-26T14:12:40.500Z,102032.63
2023-04-26T14:15:09.615Z,102035.13
2023-04-26T14:17:37.395Z,102027.88
2023-04-26T14:20:10.720Z,102038.59
2023-04-26T14:22:38.696Z,102034.09
2023-04-26T14:25:07.796Z,102038.50
2023-04-26T14:27:36.217Z,102035.66
2023-04-26T14:30:04.310Z,102045.38
2023-04-26T14:32:32.121Z,102046.25
2023-04-26T14:35:00.111Z,102034.63
2023-04-26T14:37:29.117Z,102036.41
2023-04-26T14:39:57.411Z,102025.66
2023-04-26T14:42:25.185Z,102039.81
2023-04-26T14:44:53.131Z,102037.06
2023-04-26T14:47:21.170Z,102040.50
2023-04-26T14:49:48.941Z,102029.69
2023-04-26T14:52:17.303Z,102025.13
2023-04-26T14:54:46.352Z,102039.50
2023-04-26T14:57:14.158Z,102028.66
2023-04-26T14:59:42.669Z,102034.09
2023-04-26T15:02:11.088Z,102028.75
2023-04-26T15:04:38.924Z,102032.44
2023-04-26T15:07:13.045Z,102025.78
2023-04-26T15:09:50.174Z,102030.38
2023-04-26T15:12:17.940Z,102029.88
2023-04-26T15:14:45.710Z,102030.41
2023-04-26T15:17:13.349Z,102030.50
2023-04-26T15:19:41.606Z,102029.28
2023-04-26T15:22:09.728Z,102024.66
2023-04-26T15:24:38.076Z,102024.16
2023-04-26T15:27:08.491Z,102029.13
2023-04-26T15:29:36.719Z,102027.09
2023-04-26T15:32:05.145Z,102025.03
2023-04-26T15:34:40.103Z,102020.53
2023-04-26T15:37:08.132Z,102025.84
2023-04-26T15:39:36.842Z,102023.91
2023-04-26T15:42:05.518Z,102031.00
2023-04-26T15:44:34.752Z,102028.19
2023-04-26T15:47:02.666Z,102028.94
2023-04-26T15:49:31.073Z,102039.53
2023-04-26T15:51:59.032Z,102041.22
2023-04-26T15:54:27.809Z,102036.66
2023-04-26T15:56:56.395Z,102034.81
2023-04-26T15:59:24.070Z,102032.06
2023-04-26T16:01:53.176Z,102031.03
2023-04-26T16:04:22.058Z,102031.94
2023-04-26T16:06:50.843Z,102039.88
2023-04-26T16:09:25.228Z,102034.28
2023-04-26T16:11:54.067Z,102039.50
2023-04-26T16:14:21.795Z,102045.69
2023-04-26T16:16:49.554Z,102042.16
2023-04-26T16:19:18.720Z,102032.59
2023-04-26T16:21:47.139Z,102039.75
2023-04-26T16:24:14.807Z,102033.03
2023-04-26T16:26:42.804Z,102040.91
2023-04-26T16:29:10.864Z,102039.06
2023-04-26T16:31:39.869Z,102036.38
2023-04-26T16:34:07.710Z,102034.69
2023-04-26T16:36:37.510Z,102033.94
2023-04-26T16:39:06.280Z,102037.63
2023-04-26T16:41:34.012Z,102040.31
2023-04-26T16:44:01.687Z,102029.56
2023-04-26T16:46:29.769Z,102026.81
2023-04-26T16:48:57.732Z,102026.03
2023-04-26T16:51:25.584Z,102028.56
2023-04-26T16:53:54.692Z,102025.75
2023-04-26T16:56:22.706Z,102026.56
2023-04-26T16:58:50.784Z,102022.09
2023-04-26T17:01:18.937Z,102032.00
2023-04-26T17:03:47.711Z,102032.00
2023-04-26T17:06:16.164Z,102039.06
2023-04-26T17:08:44.071Z,102036.31
2023-04-26T17:11:16.290Z,102038.03
2023-04-26T17:13:44.582Z,102038.84
2023-04-26T17:16:12.738Z,102035.19
2023-04-26T17:18:41.822Z,102039.97
2023-04-26T17:21:09.966Z,102042.81
2023-04-26T17:23:37.627Z,102042.66
2023-04-26T17:26:05.917Z,102047.06
2023-04-26T17:28:35.154Z,102043.31
2023-04-26T17:31:03.753Z,102041.44
2023-04-26T17:33:31.945Z,102040.50
2023-04-26T17:35:59.975Z,102046.81
2023-04-26T17:38:28.555Z,102049.50
2023-04-26T17:40:56.561Z,102053.03
2023-04-26T17:43:24.287Z,102048.53
2023-04-26T17:45:54.256Z,102048.53
2023-04-26T17:48:22.107Z,102054.88
2023-04-26T17:50:50.814Z,102047.84
2023-04-26T17:53:19.161Z,102049.69
2023-04-26T17:55:48.058Z,102053.41
2023-04-26T17:58:16.516Z,102055.31
2023-04-26T18:00:44.176Z,102056.25
2023-04-26T18:03:14.097Z,102056.38
2023-04-26T18:05:42.082Z,102059.13
2023-04-26T18:08:10.002Z,102052.94
2023-04-26T18:10:37.681Z,102063.72
2023-04-26T18:13:05.972Z,102060.16
2023-04-26T18:15:34.128Z,102062.00
2023-04-26T18:20:36.156Z,102068.38
2023-04-26T18:23:04.691Z,102063.00
2023-04-26T18:25:32.907Z,102070.16
2023-04-26T18:28:00.818Z,102067.53
2023-04-26T18:30:28.575Z,102067.53
2023-04-26T18:32:56.643Z,102066.69
2023-04-26T18:35:24.871Z,102066.69
2023-04-26T18:37:54.264Z,102071.22
2023-04-26T18:40:21.904Z,102064.97
2023-04-26T18:42:49.624Z,102057.00
2023-04-26T18:45:18.151Z,102061.50
2023-04-26T18:47:46.525Z,102059.72
2023-04-26T18:50:14.669Z,102059.72
2023-04-26T18:52:42.477Z,102063.34
2023-04-26T18:55:11.947Z,102064.25
2023-04-26T18:57:40.897Z,102070.59
2023-04-26T19:00:09.910Z,102067.00
2023-04-26T19:02:40.028Z,102068.81
2023-04-26T19:05:09.685Z,102070.66
2023-04-26T19:07:37.878Z,102074.25
2023-04-26T19:10:07.787Z,102077.88
2023-04-26T19:12:38.722Z,102070.72
2023-04-26T19:15:07.742Z,102079.72
2023-04-26T19:17:35.394Z,102083.34
2023-04-26T19:20:07.560Z,102077.97
2023-04-26T19:22:36.248Z,102077.97
2023-04-26T19:25:05.082Z,102085.19
2023-04-26T19:27:32.838Z,102083.34
2023-04-26T19:30:02.086Z,102085.09
2023-04-26T19:32:30.052Z,102085.09
2023-04-26T19:34:58.605Z,102089.59
2023-04-26T19:37:26.411Z,102087.78
2023-04-26T19:39:54.190Z,102081.53
2023-04-26T19:42:21.957Z,102091.41
2023-04-26T19:44:49.651Z,102086.94
2023-04-26T19:47:19.002Z,102086.94
2023-04-26T19:49:47.828Z,102087.91
2023-04-26T19:52:15.885Z,102086.09
2023-04-26T19:54:43.911Z,102079.88
2023-04-26T19:57:12.128Z,102085.25
2023-04-26T19:59:40.399Z,102087.94
2023-04-26T20:02:08.323Z,102092.44
2023-04-26T20:04:38.070Z,102086.19
2023-04-26T20:07:06.612Z,102095.97
2023-04-26T20:09:34.869Z,102094.16
2023-04-26T20:12:03.226Z,102100.47
2023-04-26T20:14:31.773Z,102100.50
2023-04-26T20:17:02.143Z,102101.38
2023-04-26T20:19:30.835Z,102101.44
2023-04-26T20:21:59.826Z,102097.88
2023-04-26T20:24:29.621Z,102102.34
2023-04-26T20:26:57.794Z,102101.47
2023-04-26T20:29:25.853Z,102095.19
2023-04-26T20:31:53.661Z,102093.38
2023-04-26T20:34:21.242Z,102096.09
2023-04-26T20:36:48.826Z,102097.03
2023-04-26T20:39:18.126Z,102096.09
2023-04-26T20:41:47.033Z,102094.34
2023-04-26T20:44:14.815Z,102101.50
2023-04-26T20:46:42.599Z,102097.03
2023-04-26T20:49:10.279Z,102102.41
2023-04-26T20:51:38.404Z,102099.72
2023-04-26T20:54:06.604Z,102093.50
2023-04-26T20:56:35.625Z,102102.41
2023-04-26T20:59:03.647Z,102092.41
2023-04-26T21:01:31.821Z,102091.44
2023-04-26T21:03:59.895Z,102087.75
2023-04-26T21:06:28.296Z,102092.16
2023-04-26T21:08:56.021Z,102086.84
2023-04-26T21:11:23.935Z,102092.34
2023-04-26T21:13:54.169Z,102088.88
2023-04-26T21:16:22.256Z,102095.19
2023-04-26T21:18:50.094Z,102092.56
2023-04-26T21:21:18.126Z,102095.31
2023-04-26T21:23:45.907Z,102092.63
2023-04-26T21:26:13.924Z,102099.81
2023-04-26T21:28:41.864Z,102095.31
2023-04-26T21:31:11.830Z,102095.25
2023-04-26T21:33:39.776Z,102097.03
2023-04-26T21:36:08.266Z,102095.25
2023-04-26T21:38:36.261Z,102096.19
2023-04-26T21:41:03.944Z,102096.19
2023-04-26T21:43:31.793Z,102102.41
2023-04-26T21:45:59.794Z,102092.63
2023-04-26T21:48:29.186Z,102088.97
2023-04-26T21:50:57.115Z,102087.16
2023-04-26T21:53:24.711Z,102083.50
2023-04-26T21:55:53.897Z,102086.97
2023-04-26T21:58:22.234Z,102089.63
2023-04-26T22:00:50.962Z,102084.03
2023-04-26T22:03:19.760Z,102084.53
2023-04-26T22:05:49.051Z,102089.63
2023-04-26T22:08:16.847Z,102086.91
2023-04-26T22:10:44.814Z,102087.78
2023-04-26T22:13:12.477Z,102088.84
2023-04-26T22:15:40.079Z,102090.81
2023-04-26T22:18:08.180Z,102088.44
2023-04-26T22:20:36.005Z,102099.47
2023-04-26T22:23:05.168Z,102094.34
2023-04-26T22:25:33.223Z,102098.09
2023-04-26T22:28:01.326Z,102101.03
2023-04-26T22:30:29.123Z,102106.53
2023-04-26T22:32:59.672Z,102106.69
2023-04-26T22:35:29.099Z,102108.63
2023-04-26T22:37:57.477Z,102111.47
2023-04-26T22:40:26.884Z,102109.81
2023-04-26T22:42:54.726Z,102109.09
2023-04-26T22:45:22.955Z,102115.44
2023-04-26T22:47:51.128Z,102120.91
2023-04-26T22:50:19.276Z,102121.94
2023-04-26T22:52:47.542Z,102125.66
2023-04-26T22:55:15.636Z,102128.44
2023-04-26T22:57:44.602Z,102131.22
2023-04-26T23:00:14.509Z,102125.09
2023-04-26T23:02:43.713Z,102126.06
2023-04-26T23:05:12.032Z,102130.63
2023-04-26T23:07:40.862Z,102131.63
2023-04-26T23:10:09.702Z,102132.56
2023-04-26T23:12:37.797Z,102134.44
2023-04-26T23:15:08.580Z,102130.94
2023-04-26T23:17:36.863Z,102139.91
2023-04-26T23:20:12.373Z,102130.19
2023-04-26T23:22:42.146Z,102127.56
2023-04-26T23:25:11.158Z,102129.41
2023-04-26T23:27:39.207Z,102137.53
2023-04-26T23:30:10.369Z,102143.81
2023-04-26T23:32:38.753Z,102144.78
2023-04-26T23:35:07.782Z,102129.72
2023-04-26T23:37:36.220Z,102143.22
2023-04-26T23:40:05.628Z,102135.25
2023-04-26T23:42:33.577Z,102141.63
2023-04-26T23:45:01.536Z,102137.22
2023-04-26T23:47:31.951Z,102139.03
2023-04-26T23:50:00.405Z,102147.13
2023-04-26T23:52:28.832Z,102143.63
2023-04-26T23:54:56.817Z,102149.88
2023-04-26T23:57:25.454Z,102155.31
2023-04-26T23:59:53.767Z,102166.94
